sensor_id;sensor_type;location;lat;lon;timestamp;pressure;altitude;pressure_sealevel;temperature;humidity
45541;BME280;31265;49.680;8.608;2023-11-22T00:01:37;101209.75;;;4.62;100.00
45541;BME280;31265;49.680;8.608;2023-11-22T00:04:07;101210.75;;;4.59;100.00
45541;BME280;31265;49.680;8.608;2023-11-22T00:06:35;101213.75;;;4.56;100.00
45541;BME280;31265;49.680;8.608;2023-11-22T00:09:04;101219.22;;;4.44;100.00
45541;BME280;31265;49.680;8.608;2023-11-22T00:11:33;101226.72;;;4.44;100.00
45541;BME280;31265;49.680;8.608;2023-11-22T00:14:02;101217.75;;;4.49;100.00
45541;BME280;31265;49.680;8.608;2023-11-22T00:16:30;101220.75;;;4.51;100.00
45541;BME280;31265;49.680;8.608;2023-11-22T00:18:59;101216.28;;;4.70;100.00
45541;BME280;31265;49.680;8.608;2023-11-22T00:21:29;101224.00;;;4.66;100.00
45541;BME280;31265;49.680;8.608;2023-11-22T00:23:57;101231.03;;;4.73;100.00
45541;BME280;31265;49.680;8.608;2023-11-22T00:26:28;101222.50;;;4.71;100.00
45541;BME280;31265;49.680;8.608;2023-11-22T00:28:59;101222.03;;;4.72;100.00
45541;BME280;31265;49.680;8.608;2023-11-22T00:31:28;101223.53;;;4.68;100.00
45541;BME280;31265;49.680;8.608;2023-11-22T00:33:56;101229.03;;;4.68;100.00
45541;BME280;31265;49.680;8.608;2023-11-22T00:36:25;101230.00;;;4.59;100.00
45541;BME280;31265;49.680;8.608;2023-11-22T00:38:54;101238.00;;;4.57;100.00
45541;BME280;31265;49.680;8.608;2023-11-22T00:41:23;101236.75;;;4.64;100.00
45541;BME280;31265;49.680;8.608;2023-11-22T00:43:52;101245.25;;;4.60;100.00
45541;BME280;31265;49.680;8.608;2023-11-22T00:46:21;101253.00;;;4.50;100.00
45541;BME280;31265;49.680;8.608;2023-11-22T00:48:50;101263.50;;;4.58;100.00
45541;BME280;31265;49.680;8.608;2023-11-22T00:51:18;101258.22;;;4.48;100.00
45541;BME280;31265;49.680;8.608;2023-11-22T00:53:47;101254.97;;;4.44;100.00
45541;BME280;31265;49.680;8.608;2023-11-22T00:56:20;101259.44;;;4.30;100.00
45541;BME280;31265;49.680;8.608;2023-11-22T00:58:48;101267.41;;;4.23;100.00
45541;BME280;31265;49.680;8.608;2023-11-22T01:01:17;101277.09;;;4.13;100.00
45541;BME280;31265;49.680;8.608;2023-11-22T01:03:45;101270.13;;;4.17;100.00
45541;BME280;31265;49.680;8.608;2023-11-22T01:06:15;101278.06;;;4.04;100.00
45541;BME280;31265;49.680;8.608;2023-11-22T01:08:45;101288.06;;;4.07;100.00
45541;BME280;31265;49.680;8.608;2023-11-22T01:11:15;101289.00;;;3.93;100.00
45541;BME280;31265;49.680;8.608;2023-11-22T01:13:45;101287.50;;;3.86;100.00
45541;BME280;31265;49.680;8.608;2023-11-22T01:16:13;101285.03;;;3.94;100.00
45541;BME280;31265;49.680;8.608;2023-11-22T01:18:43;101287.69;;;3.77;100.00
45541;BME280;31265;49.680;8.608;2023-11-22T01:21:14;101284.19;;;3.76;100.00
45541;BME280;31265;49.680;8.608;2023-11-22T01:23:42;101291.19;;;3.77;100.00
45541;BME280;31265;49.680;8.608;2023-11-22T01:26:12;101282.91;;;3.66;100.00
45541;BME280;31265;49.680;8.608;2023-11-22T01:28:41;101283.84;;;3.63;100.00
45541;BME280;31265;49.680;8.608;2023-11-22T01:31:13;101279.63;;;3.67;100.00
45541;BME280;31265;49.680;8.608;2023-11-22T01:33:42;101284.34;;;3.61;100.00
45541;BME280;31265;49.680;8.608;2023-11-22T01:36:11;101278.34;;;3.57;100.00
45541;BME280;31265;49.680;8.608;2023-11-22T01:38:39;101285.47;;;3.43;100.00
45541;BME280;31265;49.680;8.608;2023-11-22T01:41:07;101284.31;;;3.56;100.00
45541;BME280;31265;49.680;8.608;2023-11-22T01:43:37;101283.19;;;3.74;100.00
45541;BME280;31265;49.680;8.608;2023-11-22T01:46:07;101290.06;;;3.58;100.00
45541;BME280;31265;49.680;8.608;2023-11-22T01:48:39;101296.50;;;3.49;100.00
45541;BME280;31265;49.680;8.608;2023-11-22T01:51:08;101301.22;;;3.49;100.00
45541;BME280;31265;49.680;8.608;2023-11-22T01:53:36;101306.25;;;3.56;100.00
45541;BME280;31265;49.680;8.608;2023-11-22T01:56:05;101315.00;;;3.54;100.00
45541;BME280;31265;49.680;8.608;2023-11-22T01:58:33;101316.63;;;3.40;100.00
45541;BME280;31265;49.680;8.608;2023-11-22T02:01:04;101307.94;;;3.42;100.00
45541;BME280;31265;49.680;8.608;2023-11-22T02:03:32;101311.16;;;3.40;100.00
45541;BME280;31265;49.680;8.608;2023-11-22T02:06:03;101319.66;;;3.42;100.00
45541;BME280;31265;49.680;8.608;2023-11-22T02:08:32;101309.16;;;3.41;100.00
45541;BME280;31265;49.680;8.608;2023-11-22T02:11:02;101314.25;;;3.54;100.00
45541;BME280;31265;49.680;8.608;2023-11-22T02:13:30;101323.72;;;3.53;100.00
45541;BME280;31265;49.680;8.608;2023-11-22T02:15:59;101331.81;;;3.36;100.00
45541;BME280;31265;49.680;8.608;2023-11-22T02:18:29;101330.59;;;3.37;100.00
45541;BME280;31265;49.680;8.608;2023-11-22T02:20:58;101339.78;;;3.34;100.00
45541;BME280;31265;49.680;8.608;2023-11-22T02:23:28;101337.38;;;3.15;100.00
45541;BME280;31265;49.680;8.608;2023-11-22T02:25:57;101343.09;;;3.12;100.00
45541;BME280;31265;49.680;8.608;2023-11-22T02:28:26;101339.06;;;3.07;100.00
45541;BME280;31265;49.680;8.608;2023-11-22T02:30:54;101357.94;;;2.99;100.00
45541;BME280;31265;49.680;8.608;2023-11-22T02:33:22;101354.94;;;2.97;100.00
45541;BME280;31265;49.680;8.608;2023-11-22T02:35:52;101368.00;;;2.82;100.00
45541;BME280;31265;49.680;8.608;2023-11-22T02:38:21;101378.78;;;2.65;100.00
45541;BME280;31265;49.680;8.608;2023-11-22T02:40:51;101381.25;;;2.63;100.00
45541;BME280;31265;49.680;8.608;2023-11-22T02:43:20;101377.66;;;2.57;100.00
45541;BME280;31265;49.680;8.608;2023-11-22T02:45:50;101370.06;;;2.46;100.00
45541;BME280;31265;49.680;8.608;2023-11-22T02:48:18;101383.59;;;2.50;100.00
45541;BME280;31265;49.680;8.608;2023-11-22T02:50:47;101377.59;;;2.51;100.00
45541;BME280;31265;49.680;8.608;2023-11-22T02:53:16;101371.16;;;2.54;100.00
45541;BME280;31265;49.680;8.608;2023-11-22T02:55:44;101371.56;;;2.47;100.00
45541;BME280;31265;49.680;8.608;2023-11-22T02:58:14;101375.69;;;2.37;100.00
45541;BME280;31265;49.680;8.608;2023-11-22T03:00:43;101380.63;;;2.33;100.00
45541;BME280;31265;49.680;8.608;2023-11-22T03:03:12;101360.84;;;2.23;100.00
45541;BME280;31265;49.680;8.608;2023-11-22T03:05:40;101365.81;;;2.25;100.00
45541;BME280;31265;49.680;8.608;2023-11-22T03:08:08;101364.72;;;2.17;100.00
45541;BME280;31265;49.680;8.608;2023-11-22T03:10:37;101364.03;;;2.22;100.00
45541;BME280;31265;49.680;8.608;2023-11-22T03:13:05;101366.84;;;2.07;100.00
45541;BME280;31265;49.680;8.608;2023-11-22T03:15:35;101374.41;;;1.97;100.00
45541;BME280;31265;49.680;8.608;2023-11-22T03:18:04;101376.13;;;1.94;100.00
45541;BME280;31265;49.680;8.608;2023-11-22T03:20:34;101378.13;;;1.94;100.00
45541;BME280;31265;49.680;8.608;2023-11-22T03:23:04;101384.00;;;2.07;100.00
45541;BME280;31265;49.680;8.608;2023-11-22T03:25:33;101402.25;;;2.10;100.00
45541;BME280;31265;49.680;8.608;2023-11-22T03:28:01;101397.97;;;2.09;100.00
45541;BME280;31265;49.680;8.608;2023-11-22T03:30:30;101409.44;;;2.08;100.00
45541;BME280;31265;49.680;8.608;2023-11-22T03:33:00;101412.28;;;1.99;100.00
45541;BME280;31265;49.680;8.608;2023-11-22T03:35:28;101412.91;;;2.08;100.00
45541;BME280;31265;49.680;8.608;2023-11-22T03:37:57;101418.69;;;2.10;100.00
45541;BME280;31265;49.680;8.608;2023-11-22T03:40:25;101425.75;;;2.02;100.00
45541;BME280;31265;49.680;8.608;2023-11-22T03:42:54;101430.13;;;1.94;100.00
45541;BME280;31265;49.680;8.608;2023-11-22T03:45:22;101440.22;;;1.88;100.00
45541;BME280;31265;49.680;8.608;2023-11-22T03:47:52;101444.28;;;1.92;100.00
45541;BME280;31265;49.680;8.608;2023-11-22T03:50:22;101447.88;;;1.99;100.00
45541;BME280;31265;49.680;8.608;2023-11-22T03:52:51;101447.97;;;1.89;100.00
45541;BME280;31265;49.680;8.608;2023-11-22T03:55:19;101448.06;;;1.80;100.00
45541;BME280;31265;49.680;8.608;2023-11-22T03:57:48;101449.41;;;1.70;100.00
45541;BME280;31265;49.680;8.608;2023-11-22T04:00:17;101459.41;;;1.58;100.00
45541;BME280;31265;49.680;8.608;2023-11-22T04:02:46;101465.06;;;1.55;100.00
45541;BME280;31265;49.680;8.608;2023-11-22T04:05:15;101474.88;;;1.46;100.00
45541;BME280;31265;49.680;8.608;2023-11-22T04:07:47;101480.13;;;1.35;100.00
45541;BME280;31265;49.680;8.608;2023-11-22T04:10:16;101490.78;;;1.33;100.00
45541;BME280;31265;49.680;8.608;2023-11-22T04:12:46;101491.28;;;1.32;100.00
45541;BME280;31265;49.680;8.608;2023-11-22T04:15:15;101493.72;;;1.29;100.00
45541;BME280;31265;49.680;8.608;2023-11-22T04:17:43;101490.72;;;1.42;100.00
45541;BME280;31265;49.680;8.608;2023-11-22T04:20:12;101493.75;;;1.59;100.00
45541;BME280;31265;49.680;8.608;2023-11-22T04:22:44;101495.63;;;1.53;100.00
45541;BME280;31265;49.680;8.608;2023-11-22T04:25:14;101504.03;;;1.64;100.00
45541;BME280;31265;49.680;8.608;2023-11-22T04:27:42;101503.16;;;1.58;100.00
45541;BME280;31265;49.680;8.608;2023-11-22T04:30:11;101504.69;;;1.59;100.00
45541;BME280;31265;49.680;8.608;2023-11-22T04:32:44;101511.56;;;1.55;100.00
45541;BME280;31265;49.680;8.608;2023-11-22T04:35:13;101512.78;;;1.39;100.00
45541;BME280;31265;49.680;8.608;2023-11-22T04:37:42;101521.25;;;1.41;100.00
45541;BME280;31265;49.680;8.608;2023-11-22T04:40:11;101526.47;;;1.39;100.00
45541;BME280;31265;49.680;8.608;2023-11-22T04:42:43;101520.13;;;1.33;100.00
45541;BME280;31265;49.680;8.608;2023-11-22T04:45:11;101532.81;;;1.21;100.00
45541;BME280;31265;49.680;8.608;2023-11-22T04:47:40;101533.31;;;1.19;100.00
45541;BME280;31265;49.680;8.608;2023-11-22T04:50:10;101526.09;;;1.07;100.00
45541;BME280;31265;49.680;8.608;2023-11-22T04:52:39;101536.63;;;0.99;100.00
45541;BME280;31265;49.680;8.608;2023-11-22T04:55:08;101545.34;;;0.89;100.00
45541;BME280;31265;49.680;8.608;2023-11-22T04:57:37;101543.38;;;0.89;100.00
45541;BME280;31265;49.680;8.608;2023-11-22T05:00:10;101531.91;;;1.00;100.00
45541;BME280;31265;49.680;8.608;2023-11-22T05:02:38;101536.22;;;0.92;100.00
45541;BME280;31265;49.680;8.608;2023-11-22T05:05:08;101543.72;;;0.82;100.00
45541;BME280;31265;49.680;8.608;2023-11-22T05:07:38;101550.81;;;0.89;100.00
45541;BME280;31265;49.680;8.608;2023-11-22T05:10:08;101549.94;;;0.82;100.00
45541;BME280;31265;49.680;8.608;2023-11-22T05:12:36;101546.03;;;0.74;100.00
45541;BME280;31265;49.680;8.608;2023-11-22T05:15:06;101546.84;;;0.66;100.00
45541;BME280;31265;49.680;8.608;2023-11-22T05:17:35;101547.16;;;0.58;100.00
45541;BME280;31265;49.680;8.608;2023-11-22T05:20:04;101556.19;;;0.50;100.00
45541;BME280;31265;49.680;8.608;2023-11-22T05:22:36;101558.00;;;0.43;100.00
45541;BME280;31265;49.680;8.608;2023-11-22T05:25:05;101569.25;;;0.36;100.00
45541;BME280;31265;49.680;8.608;2023-11-22T05:27:34;101553.25;;;0.53;100.00
45541;BME280;31265;49.680;8.608;2023-11-22T05:30:03;101562.06;;;0.57;100.00
45541;BME280;31265;49.680;8.608;2023-11-22T05:32:31;101573.16;;;0.87;100.00
45541;BME280;31265;49.680;8.608;2023-11-22T05:35:02;101569.81;;;0.83;100.00
45541;BME280;31265;49.680;8.608;2023-11-22T05:37:33;101576.63;;;0.88;100.00
45541;BME280;31265;49.680;8.608;2023-11-22T05:40:01;101576.63;;;0.88;100.00
45541;BME280;31265;49.680;8.608;2023-11-22T05:42:30;101585.88;;;0.90;100.00
45541;BME280;31265;49.680;8.608;2023-11-22T05:44:59;101580.28;;;0.84;100.00
45541;BME280;31265;49.680;8.608;2023-11-22T05:47:28;101591.03;;;0.88;100.00
45541;BME280;31265;49.680;8.608;2023-11-22T05:49:57;101611.41;;;0.87;100.00
45541;BME280;31265;49.680;8.608;2023-11-22T05:52:27;101609.72;;;0.90;100.00
45541;BME280;31265;49.680;8.608;2023-11-22T05:54:55;101619.41;;;0.91;100.00
45541;BME280;31265;49.680;8.608;2023-11-22T05:57:23;101619.72;;;0.93;100.00
45541;BME280;31265;49.680;8.608;2023-11-22T05:59:52;101611.41;;;0.87;100.00
45541;BME280;31265;49.680;8.608;2023-11-22T06:02:20;101616.69;;;0.91;100.00
45541;BME280;31265;49.680;8.608;2023-11-22T06:04:49;101618.56;;;0.84;100.00
45541;BME280;31265;49.680;8.608;2023-11-22T06:07:17;101622.34;;;0.87;100.00
45541;BME280;31265;49.680;8.608;2023-11-22T06:09:47;101621.56;;;0.86;100.00
45541;BME280;31265;49.680;8.608;2023-11-22T06:12:15;101631.81;;;1.01;100.00
45541;BME280;31265;49.680;8.608;2023-11-22T06:14:44;101635.03;;;0.99;100.00
45541;BME280;31265;49.680;8.608;2023-11-22T06:17:13;101632.94;;;0.94;100.00
45541;BME280;31265;49.680;8.608;2023-11-22T06:19:42;101647.97;;;0.90;100.00
45541;BME280;31265;49.680;8.608;2023-11-22T06:22:11;101652.59;;;1.07;100.00
45541;BME280;31265;49.680;8.608;2023-11-22T06:24:39;101655.44;;;0.89;100.00
45541;BME280;31265;49.680;8.608;2023-11-22T06:27:09;101658.50;;;0.82;100.00
45541;BME280;31265;49.680;8.608;2023-11-22T06:29:38;101666.88;;;0.69;100.00
45541;BME280;31265;49.680;8.608;2023-11-22T06:32:07;101666.72;;;0.73;100.00
45541;BME280;31265;49.680;8.608;2023-11-22T06:34:36;101659.03;;;0.62;100.00
45541;BME280;31265;49.680;8.608;2023-11-22T06:37:06;101681.00;;;0.68;100.00
45541;BME280;31265;49.680;8.608;2023-11-22T06:39:36;101676.69;;;0.85;100.00
45541;BME280;31265;49.680;8.608;2023-11-22T06:42:04;101688.28;;;0.71;100.00
45541;BME280;31265;49.680;8.608;2023-11-22T06:44:33;101685.22;;;0.78;100.00
45541;BME280;31265;49.680;8.608;2023-11-22T06:47:02;101694.78;;;0.73;100.00
45541;BME280;31265;49.680;8.608;2023-11-22T06:49:31;101709.81;;;0.69;100.00
45541;BME280;31265;49.680;8.608;2023-11-22T06:52:00;101707.22;;;0.83;100.00
45541;BME280;31265;49.680;8.608;2023-11-22T06:54:29;101704.03;;;0.85;100.00
45541;BME280;31265;49.680;8.608;2023-11-22T06:56:58;101705.22;;;0.84;100.00
45541;BME280;31265;49.680;8.608;2023-11-22T06:59:26;101704.03;;;0.85;100.00
45541;BME280;31265;49.680;8.608;2023-11-22T07:01:56;101690.84;;;0.74;100.00
45541;BME280;31265;49.680;8.608;2023-11-22T07:04:24;101696.91;;;0.69;100.00
45541;BME280;31265;49.680;8.608;2023-11-22T07:06:53;101697.69;;;0.70;100.00
45541;BME280;31265;49.680;8.608;2023-11-22T07:09:21;101700.53;;;0.84;100.00
45541;BME280;31265;49.680;8.608;2023-11-22T07:11:50;101701.31;;;0.76;100.00
45541;BME280;31265;49.680;8.608;2023-11-22T07:14:18;101709.38;;;0.70;100.00
45541;BME280;31265;49.680;8.608;2023-11-22T07:16:47;101717.44;;;0.64;100.00
45541;BME280;31265;49.680;8.608;2023-11-22T07:19:19;101720.63;;;0.63;100.00
45541;BME280;31265;49.680;8.608;2023-11-22T07:21:47;101712.13;;;0.52;100.00
45541;BME280;31265;49.680;8.608;2023-11-22T07:24:15;101725.78;;;0.61;100.00
45541;BME280;31265;49.680;8.608;2023-11-22T07:26:45;101731.72;;;0.50;100.00
45541;BME280;31265;49.680;8.608;2023-11-22T07:29:14;101732.66;;;0.47;100.00
45541;BME280;31265;49.680;8.608;2023-11-22T07:31:42;101735.03;;;0.63;100.00
45541;BME280;31265;49.680;8.608;2023-11-22T07:34:11;101738.69;;;0.70;100.00
45541;BME280;31265;49.680;8.608;2023-11-22T07:36:41;101735.47;;;0.71;100.00
45541;BME280;31265;49.680;8.608;2023-11-22T07:39:10;101728.81;;;0.63;100.00
45541;BME280;31265;49.680;8.608;2023-11-22T07:41:38;101735.97;;;0.51;100.00
45541;BME280;31265;49.680;8.608;2023-11-22T07:44:07;101739.78;;;0.45;100.00
45541;BME280;31265;49.680;8.608;2023-11-22T07:46:41;101735.97;;;0.42;100.00
45541;BME280;31265;49.680;8.608;2023-11-22T07:49:10;101737.81;;;0.45;100.00
45541;BME280;31265;49.680;8.608;2023-11-22T07:51:42;101740.38;;;0.58;100.00
45541;BME280;31265;49.680;8.608;2023-11-22T07:54:12;101741.84;;;0.68;100.00
45541;BME280;31265;49.680;8.608;2023-11-22T07:56:42;101745.66;;;0.71;100.00
45541;BME280;31265;49.680;8.608;2023-11-22T07:59:11;101746.25;;;0.75;100.00
45541;BME280;31265;49.680;8.608;2023-11-22T08:01:41;101740.78;;;0.75;100.00
45541;BME280;31265;49.680;8.608;2023-11-22T08:04:10;101729.53;;;0.82;100.00
45541;BME280;31265;49.680;8.608;2023-11-22T08:06:40;101731.78;;;0.93;100.00
45541;BME280;31265;49.680;8.608;2023-11-22T08:09:09;101723.06;;;1.03;100.00
45541;BME280;31265;49.680;8.608;2023-11-22T08:11:38;101729.16;;;1.07;100.00
45541;BME280;31265;49.680;8.608;2023-11-22T08:14:09;101728.53;;;1.03;100.00
45541;BME280;31265;49.680;8.608;2023-11-22T08:16:40;101738.41;;;1.10;100.00
45541;BME280;31265;49.680;8.608;2023-11-22T08:19:10;101737.75;;;1.24;100.00
45541;BME280;31265;49.680;8.608;2023-11-22T08:21:39;101736.94;;;1.33;100.00
45541;BME280;31265;49.680;8.608;2023-11-22T08:24:07;101730.66;;;1.42;100.00
45541;BME280;31265;49.680;8.608;2023-11-22T08:26:37;101739.59;;;1.52;100.00
45541;BME280;31265;49.680;8.608;2023-11-22T08:29:05;101742.53;;;1.63;100.00
45541;BME280;31265;49.680;8.608;2023-11-22T08:31:34;101755.13;;;1.69;100.00
45541;BME280;31265;49.680;8.608;2023-11-22T08:34:03;101760.94;;;1.62;100.00
45541;BME280;31265;49.680;8.608;2023-11-22T08:36:34;101756.47;;;1.74;100.00
45541;BME280;31265;49.680;8.608;2023-11-22T08:39:03;101758.13;;;1.81;100.00
45541;BME280;31265;49.680;8.608;2023-11-22T08:41:32;101764.44;;;1.87;100.00
45541;BME280;31265;49.680;8.608;2023-11-22T08:44:03;101772.25;;;2.03;100.00
45541;BME280;31265;49.680;8.608;2023-11-22T08:46:31;101760.38;;;2.06;100.00
45541;BME280;31265;49.680;8.608;2023-11-22T08:48:59;101756.53;;;2.13;100.00
45541;BME280;31265;49.680;8.608;2023-11-22T08:51:29;101749.22;;;2.10;100.00
45541;BME280;31265;49.680;8.608;2023-11-22T08:53:57;101756.66;;;2.33;100.00
45541;BME280;31265;49.680;8.608;2023-11-22T08:56:26;101755.91;;;2.33;100.00
45541;BME280;31265;49.680;8.608;2023-11-22T08:58:54;101765.47;;;2.38;100.00
45541;BME280;31265;49.680;8.608;2023-11-22T09:01:24;101756.84;;;2.45;100.00
45541;BME280;31265;49.680;8.608;2023-11-22T09:03:53;101761.22;;;2.51;100.00
45541;BME280;31265;49.680;8.608;2023-11-22T09:06:21;101761.09;;;2.31;100.00
45541;BME280;31265;49.680;8.608;2023-11-22T09:08:50;101770.41;;;2.24;100.00
45541;BME280;31265;49.680;8.608;2023-11-22T09:11:19;101779.78;;;2.32;100.00
45541;BME280;31265;49.680;8.608;2023-11-22T09:13:49;101779.31;;;2.34;100.00
45541;BME280;31265;49.680;8.608;2023-11-22T09:16:17;101791.84;;;2.50;100.00
45541;BME280;31265;49.680;8.608;2023-11-22T09:18:50;101799.75;;;2.48;100.00
45541;BME280;31265;49.680;8.608;2023-11-22T09:21:20;101788.31;;;2.49;100.00
45541;BME280;31265;49.680;8.608;2023-11-22T09:23:49;101786.88;;;2.39;100.00
45541;BME280;31265;49.680;8.608;2023-11-22T09:26:17;101770.84;;;2.47;100.00
45541;BME280;31265;49.680;8.608;2023-11-22T09:28:45;101771.13;;;2.49;100.00
45541;BME280;31265;49.680;8.608;2023-11-22T09:31:13;101762.19;;;2.78;100.00
45541;BME280;31265;49.680;8.608;2023-11-22T09:33:44;101763.31;;;2.71;100.00
45541;BME280;31265;49.680;8.608;2023-11-22T09:36:15;101768.69;;;2.66;100.00
45541;BME280;31265;49.680;8.608;2023-11-22T09:38:45;101766.69;;;2.66;100.00
45541;BME280;31265;49.680;8.608;2023-11-22T09:41:14;101777.59;;;2.90;100.00
45541;BME280;31265;49.680;8.608;2023-11-22T09:43:43;101779.84;;;3.07;100.00
45541;BME280;31265;49.680;8.608;2023-11-22T09:46:13;101776.72;;;2.84;100.00
45541;BME280;31265;49.680;8.608;2023-11-22T09:48:44;101778.91;;;2.80;100.00
45541;BME280;31265;49.680;8.608;2023-11-22T09:51:20;101777.00;;;2.71;100.00
45541;BME280;31265;49.680;8.608;2023-11-22T09:53:52;101782.03;;;2.73;100.00
45541;BME280;31265;49.680;8.608;2023-11-22T09:56:21;101791.09;;;2.79;100.00
45541;BME280;31265;49.680;8.608;2023-11-22T09:58:51;101800.72;;;2.89;100.00
45541;BME280;31265;49.680;8.608;2023-11-22T10:01:21;101808.88;;;2.84;100.00
45541;BME280;31265;49.680;8.608;2023-11-22T10:03:49;101810.66;;;2.87;100.00
45541;BME280;31265;49.680;8.608;2023-11-22T10:06:19;101805.47;;;3.04;100.00
45541;BME280;31265;49.680;8.608;2023-11-22T10:08:48;101806.47;;;3.36;100.00
45541;BME280;31265;49.680;8.608;2023-11-22T10:11:16;101806.53;;;3.56;100.00
45541;BME280;31265;49.680;8.608;2023-11-22T10:13:47;101797.41;;;3.65;100.00
45541;BME280;31265;49.680;8.608;2023-11-22T10:16:16;101796.41;;;3.83;100.00
45541;BME280;31265;49.680;8.608;2023-11-22T10:18:46;101808.19;;;4.04;100.00
45541;BME280;31265;49.680;8.608;2023-11-22T10:21:20;101815.94;;;4.26;100.00
45541;BME280;31265;49.680;8.608;2023-11-22T10:23:48;101814.22;;;4.28;100.00
45541;BME280;31265;49.680;8.608;2023-11-22T10:26:18;101807.34;;;4.18;100.00
45541;BME280;31265;49.680;8.608;2023-11-22T10:28:46;101808.84;;;4.40;100.00
45541;BME280;31265;49.680;8.608;2023-11-22T10:31:18;101822.53;;;4.34;100.00
45541;BME280;31265;49.680;8.608;2023-11-22T10:33:47;101837.59;;;4.18;100.00
45541;BME280;31265;49.680;8.608;2023-11-22T10:36:15;101841.19;;;4.09;100.00
45541;BME280;31265;49.680;8.608;2023-11-22T10:38:46;101842.09;;;4.21;100.00
45541;BME280;31265;49.680;8.608;2023-11-22T10:41:14;101837.84;;;4.20;100.00
45541;BME280;31265;49.680;8.608;2023-11-22T10:43:43;101837.69;;;4.29;100.00
45541;BME280;31265;49.680;8.608;2023-11-22T10:46:13;101835.47;;;4.28;100.00
45541;BME280;31265;49.680;8.608;2023-11-22T10:48:41;101831.66;;;4.46;100.00
45541;BME280;31265;49.680;8.608;2023-11-22T10:51:10;101831.06;;;4.16;100.00
45541;BME280;31265;49.680;8.608;2023-11-22T10:53:43;101834.75;;;4.13;100.00
45541;BME280;31265;49.680;8.608;2023-11-22T10:56:15;101835.00;;;4.35;100.00
45541;BME280;31265;49.680;8.608;2023-11-22T10:58:46;101839.38;;;4.21;100.00
45541;BME280;31265;49.680;8.608;2023-11-22T11:01:15;101843.59;;;4.22;100.00
45541;BME280;31265;49.680;8.608;2023-11-22T11:03:45;101848.06;;;4.20;100.00
45541;BME280;31265;49.680;8.608;2023-11-22T11:06:15;101852.25;;;3.95;100.00
45541;BME280;31265;49.680;8.608;2023-11-22T11:08:49;101848.06;;;3.99;100.00
45541;BME280;31265;49.680;8.608;2023-11-22T11:11:19;101855.25;;;3.76;100.00
45541;BME280;31265;49.680;8.608;2023-11-22T11:13:47;101853.03;;;3.80;100.00
45541;BME280;31265;49.680;8.608;2023-11-22T11:16:16;101847.84;;;4.03;100.00
45541;BME280;31265;49.680;8.608;2023-11-22T11:18:45;101858.13;;;3.87;100.00
45541;BME280;31265;49.680;8.608;2023-11-22T11:21:13;101862.69;;;3.76;100.00
45541;BME280;31265;49.680;8.608;2023-11-22T11:23:43;101873.13;;;3.86;100.00
45541;BME280;31265;49.680;8.608;2023-11-22T11:26:15;101876.34;;;3.70;100.00
45541;BME280;31265;49.680;8.608;2023-11-22T11:28:46;101875.78;;;3.81;100.00
45541;BME280;31265;49.680;8.608;2023-11-22T11:31:15;101874.94;;;3.75;100.00
45541;BME280;31265;49.680;8.608;2023-11-22T11:33:53;101882.25;;;3.63;100.00
45541;BME280;31265;49.680;8.608;2023-11-22T11:36:22;101882.66;;;3.91;100.00
45541;BME280;31265;49.680;8.608;2023-11-22T11:38:51;101879.19;;;4.11;100.00
45541;BME280;31265;49.680;8.608;2023-11-22T11:41:24;101877.25;;;3.97;100.00
45541;BME280;31265;49.680;8.608;2023-11-22T11:43:55;101883.84;;;4.05;100.00
45541;BME280;31265;49.680;8.608;2023-11-22T11:46:23;101891.56;;;4.42;100.00
45541;BME280;31265;49.680;8.608;2023-11-22T11:48:53;101890.81;;;4.21;100.00
45541;BME280;31265;49.680;8.608;2023-11-22T11:51:23;101888.69;;;4.30;100.00
45541;BME280;31265;49.680;8.608;2023-11-22T11:53:52;101884.19;;;4.13;100.00
45541;BME280;31265;49.680;8.608;2023-11-22T11:56:21;101891.28;;;4.19;100.00
45541;BME280;31265;49.680;8.608;2023-11-22T11:58:50;101898.44;;;4.11;100.00
45541;BME280;31265;49.680;8.608;2023-11-22T12:01:20;101903.47;;;3.98;100.00
45541;BME280;31265;49.680;8.608;2023-11-22T12:03:49;101898.47;;;3.96;100.00
45541;BME280;31265;49.680;8.608;2023-11-22T12:06:20;101905.25;;;4.16;100.00
45541;BME280;31265;49.680;8.608;2023-11-22T12:08:49;101898.84;;;4.24;100.00
45541;BME280;31265;49.680;8.608;2023-11-22T12:11:17;101890.88;;;4.26;100.00
45541;BME280;31265;49.680;8.608;2023-11-22T12:13:48;101881.47;;;4.33;100.00
45541;BME280;31265;49.680;8.608;2023-11-22T12:16:21;101879.88;;;4.26;100.00
45541;BME280;31265;49.680;8.608;2023-11-22T12:18:49;101880.22;;;4.34;100.00
45541;BME280;31265;49.680;8.608;2023-11-22T12:21:18;101872.47;;;4.32;100.00
45541;BME280;31265;49.680;8.608;2023-11-22T12:23:47;101869.66;;;4.27;100.00
45541;BME280;31265;49.680;8.608;2023-11-22T12:26:16;101866.72;;;4.30;100.00
45541;BME280;31265;49.680;8.608;2023-11-22T12:28:46;101872.56;;;4.38;100.00
45541;BME280;31265;49.680;8.608;2023-11-22T12:31:30;101873.56;;;4.61;100.00
45541;BME280;31265;49.680;8.608;2023-11-22T12:34:03;101861.34;;;4.42;100.00
45541;BME280;31265;49.680;8.608;2023-11-22T12:36:33;101850.34;;;4.42;100.00
45541;BME280;31265;49.680;8.608;2023-11-22T12:39:06;101842.78;;;4.16;100.00
45541;BME280;31265;49.680;8.608;2023-11-22T12:41:35;101838.59;;;4.41;100.00
45541;BME280;31265;49.680;8.608;2023-11-22T12:44:04;101842.72;;;4.51;100.00
45541;BME280;31265;49.680;8.608;2023-11-22T12:46:47;101842.94;;;4.48;100.00
45541;BME280;31265;49.680;8.608;2023-11-22T12:49:23;101850.75;;;4.55;100.00
45541;BME280;31265;49.680;8.608;2023-11-22T12:51:51;101850.63;;;4.44;100.00
45541;BME280;31265;49.680;8.608;2023-11-22T12:54:20;101845.81;;;4.18;100.00
45541;BME280;31265;49.680;8.608;2023-11-22T12:56:49;101854.91;;;3.89;100.00
45541;BME280;31265;49.680;8.608;2023-11-22T12:59:21;101848.53;;;3.98;100.00
45541;BME280;31265;49.680;8.608;2023-11-22T13:01:50;101851.16;;;3.86;100.00